createdAt,value
2022-09-20T00:01:00.423Z,0.50
2022-09-20T00:03:31.236Z,0.20
2022-09-20T00:06:12.297Z,0.30
2022-09-20T00:08:44.129Z,0.10
2022-09-20T00:13:56.463Z,0.20
2022-09-20T00:16:27.574Z,0.20
2022-09-20T00:19:04.504Z,0.20
2022-09-20T00:21:35.584Z,0.37
2022-09-20T00:24:08.306Z,0.28
2022-09-20T00:26:43.740Z,0.10
2022-09-20T00:29:14.754Z,0.20
2022-09-20T00:32:00.500Z,0.20
2022-09-20T00:34:51.003Z,0.40
2022-09-20T00:37:21.188Z,0.67
2022-09-20T00:39:52.194Z,0.30
2022-09-20T00:42:22.176Z,0.32
2022-09-20T00:44:53.070Z,0.20
2022-09-20T00:47:47.265Z,0.20
2022-09-20T00:50:29.828Z,0.20
2022-09-20T00:53:15.682Z,0.10
2022-09-20T00:56:05.738Z,0.30
2022-09-20T00:58:42.327Z,0.30
2022-09-20T01:01:28.216Z,0.37
2022-09-20T01:04:20.329Z,0.30
2022-09-20T01:06:53.793Z,0.38
2022-09-20T01:09:26.025Z,0.20
2022-09-20T01:12:01.510Z,0.50
2022-09-20T01:14:45.916Z,0.27
2022-09-20T01:17:26.940Z,0.40
2022-09-20T01:20:07.055Z,0.30
2022-09-20T01:22:47.630Z,0.40
2022-09-20T01:25:34.946Z,0.40
2022-09-20T01:28:07.224Z,0.30
2022-09-20T01:31:08.008Z,0.30
2022-09-20T01:33:50.987Z,0.60
2022-09-20T01:36:39.337Z,0.30
2022-09-20T01:39:20.879Z,0.33
2022-09-20T01:42:09.320Z,0.32
2022-09-20T01:44:53.733Z,0.50
2022-09-20T01:47:36.148Z,0.30
2022-09-20T01:50:13.099Z,0.40
2022-09-20T01:52:59.220Z,0.30
2022-09-20T01:55:30.036Z,0.30
2022-09-20T01:58:31.953Z,0.93
2022-09-20T02:01:23.304Z,0.38
2022-09-20T02:04:05.553Z,0.55
2022-09-20T02:06:54.221Z,0.60
2022-09-20T02:09:47.107Z,0.70
2022-09-20T02:12:39.724Z,0.43
2022-09-20T02:15:26.018Z,0.53
2022-09-20T02:17:57.728Z,0.40
2022-09-20T02:20:43.947Z,0.32
2022-09-20T02:23:46.500Z,0.20
2022-09-20T02:26:34.816Z,0.30
2022-09-20T02:29:30.167Z,0.70
2022-09-20T02:32:18.930Z,0.20
2022-09-20T02:35:07.586Z,0.40
2022-09-20T02:38:04.093Z,0.40
2022-09-20T02:40:52.356Z,0.30
2022-09-20T02:43:26.838Z,0.30
2022-09-20T02:46:05.503Z,0.40
2022-09-20T02:49:00.754Z,0.40
2022-09-20T02:51:48.518Z,0.20
2022-09-20T02:54:51.938Z,0.50
2022-09-20T02:57:38.039Z,0.47
2022-09-20T03:00:37.155Z,0.37
2022-09-20T03:03:37.648Z,0.30
2022-09-20T03:06:33.980Z,0.30
2022-09-20T03:09:15.168Z,0.50
2022-09-20T03:11:59.219Z,0.27
2022-09-20T03:14:52.869Z,0.60
2022-09-20T03:17:22.985Z,0.43
2022-09-20T03:20:16.738Z,0.50
2022-09-20T03:23:27.367Z,0.20
2022-09-20T03:25:59.420Z,0.50
2022-09-20T03:28:46.587Z,0.53
2022-09-20T03:31:33.976Z,0.30
2022-09-20T03:34:17.984Z,0.63
2022-09-20T03:37:00.544Z,0.50
2022-09-20T03:39:50.180Z,0.77
2022-09-20T03:42:27.520Z,0.40
2022-09-20T03:45:00.427Z,0.50
2022-09-20T03:47:54.524Z,0.70
2022-09-20T03:53:46.579Z,0.77
2022-09-20T03:56:47.317Z,0.40
2022-09-20T03:59:27.755Z,1.00
2022-09-20T04:02:24.684Z,0.70
2022-09-20T04:04:55.369Z,0.70
2022-09-20T04:07:28.514Z,0.57
2022-09-20T04:10:01.232Z,0.23
2022-09-20T04:12:32.417Z,0.57
2022-09-20T04:15:22.000Z,0.45
2022-09-20T04:18:14.197Z,0.70
2022-09-20T04:20:56.629Z,0.17
2022-09-20T04:23:51.263Z,0.13
2022-09-20T04:26:29.849Z,0.43
2022-09-20T04:29:16.080Z,0.33
2022-09-20T04:31:54.111Z,0.60
2022-09-20T04:34:51.220Z,0.57
2022-09-20T04:38:03.246Z,0.67
2022-09-20T04:40:58.658Z,0.57
2022-09-20T04:44:00.035Z,0.60
2022-09-20T04:46:56.263Z,0.65
2022-09-20T04:49:56.688Z,0.20
2022-09-20T04:52:39.572Z,0.65
2022-09-20T04:55:29.438Z,0.65
2022-09-20T04:58:05.498Z,0.37
2022-09-20T05:00:57.115Z,0.30
2022-09-20T05:03:50.234Z,1.00
2022-09-20T05:06:37.885Z,1.10
2022-09-20T05:09:07.210Z,0.97
2022-09-20T05:11:57.254Z,0.73
2022-09-20T05:14:48.664Z,0.63
2022-09-20T05:17:39.829Z,0.93
2022-09-20T05:20:34.253Z,0.67
2022-09-20T05:23:24.760Z,1.00
2022-09-20T05:26:10.440Z,1.30
2022-09-20T05:29:08.380Z,1.30
2022-09-20T05:31:45.030Z,1.23
2022-09-20T05:34:35.827Z,1.73
2022-09-20T05:37:28.173Z,1.10
2022-09-20T05:40:03.343Z,0.70
2022-09-20T05:42:43.524Z,0.77
2022-09-20T05:45:33.147Z,0.80
2022-09-20T05:48:14.550Z,0.77
2022-09-20T05:51:06.707Z,1.08
2022-09-20T05:56:06.902Z,0.77
2022-09-20T05:58:43.919Z,0.90
2022-09-20T06:01:37.968Z,1.10
2022-09-20T06:04:26.238Z,1.17
2022-09-20T06:06:59.218Z,1.13
2022-09-20T06:09:48.882Z,0.83
2022-09-20T06:12:47.337Z,1.43
2022-09-20T06:15:52.643Z,1.17
2022-09-20T06:18:38.692Z,0.93
2022-09-20T06:21:15.822Z,0.90
2022-09-20T06:23:47.716Z,1.00
2022-09-20T06:26:27.522Z,1.80
2022-09-20T06:29:03.571Z,1.43
2022-09-20T06:31:34.905Z,2.17
2022-09-20T06:34:14.938Z,1.27
2022-09-20T06:37:06.007Z,1.13
2022-09-20T06:40:15.637Z,1.30
2022-09-20T06:42:47.232Z,1.37
2022-09-20T06:45:24.514Z,1.75
2022-09-20T06:47:58.281Z,1.53
2022-09-20T06:50:33.490Z,1.47
2022-09-20T06:53:01.512Z,1.63
2022-09-20T06:55:37.324Z,1.27
2022-09-20T06:58:05.317Z,1.50
2022-09-20T07:00:41.970Z,1.10
2022-09-20T07:03:31.555Z,0.70
2022-09-20T07:06:05.714Z,1.40
2022-09-20T07:08:42.223Z,1.37
2022-09-20T07:11:20.994Z,1.40
2022-09-20T07:13:56.545Z,0.97
2022-09-20T07:16:33.404Z,1.50
2022-09-20T07:19:06.212Z,1.30
2022-09-20T07:21:37.450Z,0.93
2022-09-20T07:24:09.860Z,1.42
2022-09-20T07:26:50.432Z,1.60
2022-09-20T07:29:27.841Z,2.30
2022-09-20T07:32:04.660Z,1.43
2022-09-20T07:34:34.054Z,1.13
2022-09-20T07:37:09.637Z,1.27
2022-09-20T07:39:56.327Z,1.17
2022-09-20T07:42:26.024Z,1.17
2022-09-20T07:44:58.117Z,1.57
2022-09-20T07:47:32.872Z,1.73
2022-09-20T07:53:01.649Z,1.27
2022-09-20T07:55:34.761Z,1.00
2022-09-20T07:58:08.677Z,1.17
2022-09-20T08:00:37.534Z,1.30
2022-09-20T08:03:15.274Z,0.90
2022-09-20T08:11:14.344Z,1.43
2022-09-20T08:14:06.321Z,0.90
2022-09-20T08:16:40.235Z,0.90
2022-09-20T08:19:16.686Z,0.97
2022-09-20T08:21:50.855Z,0.87
2022-09-20T08:24:19.788Z,1.07
2022-09-20T08:26:52.470Z,0.93
2022-09-20T08:29:22.627Z,0.70
2022-09-20T08:32:00.959Z,0.67
2022-09-20T08:34:31.950Z,0.40
2022-09-20T08:37:02.785Z,0.60
2022-09-20T08:42:45.292Z,0.80
2022-09-20T08:45:35.249Z,0.60
2022-09-20T08:48:08.587Z,0.50
2022-09-20T08:50:56.876Z,0.50
2022-09-20T08:53:28.521Z,0.67
2022-09-20T08:56:01.113Z,0.30
2022-09-20T08:58:32.771Z,0.40
2022-09-20T09:01:02.504Z,0.50
2022-09-20T09:03:32.902Z,0.40
2022-09-20T09:06:02.245Z,1.07
2022-09-20T09:08:40.693Z,0.93
2022-09-20T09:11:12.814Z,0.40
2022-09-20T09:13:52.725Z,0.63
2022-09-20T09:16:35.023Z,0.50
2022-09-20T09:19:33.644Z,0.40
2022-09-20T09:22:04.916Z,0.40
2022-09-20T09:24:37.422Z,0.70
2022-09-20T09:27:20.112Z,0.40
2022-09-20T09:29:56.638Z,0.40
2022-09-20T09:32:33.875Z,0.60
2022-09-20T09:35:28.773Z,0.87
2022-09-20T09:38:02.318Z,0.57
2022-09-20T09:40:33.635Z,0.50
2022-09-20T09:45:54.688Z,0.57
2022-09-20T09:48:39.463Z,0.70
2022-09-20T09:51:27.727Z,0.70
2022-09-20T09:54:12.125Z,0.87
2022-09-20T09:56:47.902Z,0.63
2022-09-20T09:59:38.791Z,0.77
2022-09-20T10:02:21.484Z,0.80
2022-09-20T10:05:13.236Z,1.00
2022-09-20T10:08:01.996Z,0.80
2022-09-20T10:10:42.747Z,1.03
2022-09-20T10:13:37.049Z,0.77
2022-09-20T10:16:12.270Z,0.40
2022-09-20T10:18:54.265Z,0.60
2022-09-20T10:21:42.400Z,0.07
2022-09-20T10:24:27.271Z,0.20
2022-09-20T10:29:40.728Z,0.20
2022-09-20T10:32:33.888Z,0.23
2022-09-20T10:35:04.047Z,0.30
2022-09-20T10:37:50.511Z,0.25
2022-09-20T10:40:56.646Z,0.20
2022-09-20T10:43:37.172Z,0.22
2022-09-20T10:46:32.822Z,0.25
2022-09-20T10:49:26.114Z,0.17
2022-09-20T10:52:07.969Z,0.20
2022-09-20T10:55:00.556Z,0.30
2022-09-20T10:57:47.144Z,0.13
2022-09-20T11:00:18.157Z,0.10
2022-09-20T11:02:53.820Z,0.17
2022-09-20T11:05:30.000Z,0.00
2022-09-20T11:08:17.432Z,0.00
2022-09-20T11:11:03.372Z,0.20
2022-09-20T11:13:43.473Z,0.00
2022-09-20T11:16:25.216Z,0.08
2022-09-20T11:19:15.163Z,0.00
2022-09-20T11:21:53.561Z,0.08
2022-09-20T11:24:36.238Z,0.47
2022-09-20T11:27:27.894Z,0.20
2022-09-20T11:32:45.094Z,0.10
2022-09-20T11:35:23.712Z,0.10
2022-09-20T11:38:47.609Z,0.00
2022-09-20T11:41:33.759Z,0.17
2022-09-20T11:44:09.322Z,0.10
2022-09-20T11:46:53.257Z,0.00
2022-09-20T11:49:29.282Z,0.20
2022-09-20T11:52:00.456Z,0.10
2022-09-20T11:54:42.550Z,0.10
2022-09-20T11:57:21.338Z,0.10
2022-09-20T11:59:53.266Z,0.10
2022-09-20T12:02:59.760Z,0.10
2022-09-20T12:05:42.519Z,0.20
2022-09-20T12:08:30.538Z,0.30
2022-09-20T12:11:15.329Z,0.00
2022-09-20T12:13:56.244Z,0.00
2022-09-20T12:16:54.241Z,0.00
2022-09-20T12:19:40.921Z,0.00
2022-09-20T12:22:15.206Z,0.20
2022-09-20T12:24:57.114Z,0.10
2022-09-20T12:27:36.753Z,0.00
2022-09-20T12:30:22.713Z,0.05
2022-09-20T12:33:01.297Z,0.10
2022-09-20T12:35:47.955Z,0.10
2022-09-20T12:38:28.065Z,0.00
2022-09-20T12:41:01.068Z,0.00
2022-09-20T12:43:41.361Z,0.10
2022-09-20T12:46:23.982Z,0.00
2022-09-20T12:49:03.855Z,0.13
2022-09-20T12:51:55.282Z,0.17
2022-09-20T12:54:27.294Z,0.00
2022-09-20T12:57:01.702Z,0.10
2022-09-20T12:59:34.333Z,0.10
2022-09-20T13:02:24.517Z,0.10
2022-09-20T13:05:01.363Z,0.00
2022-09-20T13:07:52.171Z,0.00
2022-09-20T13:10:27.484Z,0.10
2022-09-20T13:13:01.413Z,0.00
2022-09-20T13:15:33.250Z,0.10
2022-09-20T13:18:10.466Z,0.30
2022-09-20T13:20:47.968Z,0.08
2022-09-20T13:23:34.423Z,0.00
2022-09-20T13:26:05.248Z,0.03
2022-09-20T13:29:04.042Z,0.10
2022-09-20T13:31:38.229Z,0.40
2022-09-20T13:34:36.403Z,0.00
2022-09-20T13:37:11.361Z,0.05
2022-09-20T13:39:45.291Z,0.10
2022-09-20T13:42:20.874Z,0.22
2022-09-20T13:44:52.593Z,0.85
2022-09-20T13:47:28.479Z,0.38
2022-09-20T13:50:24.273Z,0.30
2022-09-20T13:53:04.140Z,0.35
2022-09-20T13:55:39.831Z,0.10
2022-09-20T13:58:42.893Z,0.10
2022-09-20T14:01:28.175Z,0.05
2022-09-20T14:04:04.144Z,0.13
2022-09-20T14:09:54.839Z,0.08
2022-09-20T14:12:31.835Z,0.10
2022-09-20T14:15:06.067Z,0.20
2022-09-20T14:17:46.134Z,0.13
2022-09-20T14:20:24.158Z,0.20
2022-09-20T14:22:59.251Z,0.10
2022-09-20T14:25:33.371Z,0.17
2022-09-20T14:28:28.720Z,0.00
2022-09-20T14:31:14.181Z,0.10
2022-09-20T14:33:54.908Z,0.20
2022-09-20T14:36:29.689Z,0.00
2022-09-20T14:39:17.985Z,0.13
2022-09-20T14:41:53.366Z,0.15
2022-09-20T14:44:39.204Z,0.00
2022-09-20T14:47:20.956Z,0.10
2022-09-20T14:49:54.288Z,0.15
2022-09-20T14:52:47.821Z,0.10
2022-09-20T14:55:33.806Z,0.05
2022-09-20T14:58:23.454Z,0.10
2022-09-20T15:01:06.373Z,0.10
2022-09-20T15:03:53.254Z,0.10
2022-09-20T15:06:26.684Z,0.00
2022-09-20T15:08:57.050Z,0.10
2022-09-20T15:11:30.378Z,0.10
2022-09-20T15:14:02.404Z,0.10
2022-09-20T15:16:33.956Z,0.38
2022-09-20T15:19:05.801Z,0.00
2022-09-20T15:21:36.197Z,0.20
2022-09-20T15:24:07.136Z,0.00
2022-09-20T15:26:48.264Z,0.38
2022-09-20T15:29:33.399Z,0.22
2022-09-20T15:32:08.102Z,0.10
2022-09-20T15:34:41.673Z,0.10
2022-09-20T15:37:15.420Z,0.10
2022-09-20T15:39:46.049Z,0.10
2022-09-20T15:42:14.900Z,0.00
2022-09-20T15:44:50.668Z,0.20
2022-09-20T15:47:28.300Z,1.30
2022-09-20T15:50:12.103Z,0.70
2022-09-20T15:52:41.806Z,0.82
2022-09-20T15:55:22.705Z,0.43
2022-09-20T15:57:59.967Z,0.45
2022-09-20T16:00:31.338Z,0.10
2022-09-20T16:03:16.786Z,0.40
2022-09-20T16:05:52.009Z,0.10
2022-09-20T16:08:22.764Z,0.20
2022-09-20T16:11:13.591Z,0.30
2022-09-20T16:13:48.161Z,0.10
2022-09-20T16:19:11.367Z,0.15
2022-09-20T16:22:02.984Z,0.20
2022-09-20T16:24:35.653Z,0.10
2022-09-20T16:27:21.752Z,0.10
2022-09-20T16:29:55.912Z,0.20
2022-09-20T16:32:26.454Z,0.10
2022-09-20T16:35:01.199Z,0.20
2022-09-20T16:37:32.909Z,0.10
2022-09-20T16:40:21.813Z,0.10
2022-09-20T16:42:53.547Z,0.10
2022-09-20T16:45:29.892Z,0.13
2022-09-20T16:48:07.744Z,0.00
2022-09-20T16:50:43.171Z,0.10
2022-09-20T16:53:17.191Z,0.03
2022-09-20T16:55:52.151Z,0.23
2022-09-20T16:58:23.742Z,0.10
2022-09-20T17:03:29.128Z,0.17
2022-09-20T17:06:11.267Z,0.20
2022-09-20T17:08:49.333Z,0.00
2022-09-20T17:11:21.641Z,0.10
2022-09-20T17:13:53.111Z,0.10
2022-09-20T17:16:28.021Z,0.20
2022-09-20T17:19:06.377Z,0.27
2022-09-20T17:21:42.128Z,0.10
2022-09-20T17:24:14.350Z,0.10
2022-09-20T17:26:49.711Z,0.27
2022-09-20T17:29:21.654Z,0.20
2022-09-20T17:31:59.850Z,0.20
2022-09-20T17:34:31.675Z,0.10
2022-09-20T17:37:09.376Z,0.17
2022-09-20T17:39:40.822Z,0.10
2022-09-20T17:42:11.373Z,0.35
2022-09-20T17:44:47.802Z,0.20
2022-09-20T17:47:20.996Z,0.10
2022-09-20T17:49:51.582Z,0.10
2022-09-20T17:52:24.100Z,0.32
2022-09-20T17:57:23.964Z,0.15
2022-09-20T17:59:54.268Z,0.20
2022-09-20T18:02:27.650Z,0.30
2022-09-20T18:04:58.180Z,0.20
2022-09-20T18:07:39.165Z,0.13
2022-09-20T18:12:52.474Z,0.10
2022-09-20T18:15:23.956Z,0.00
2022-09-20T18:18:08.257Z,0.10
2022-09-20T18:20:46.901Z,0.27
2022-09-20T18:23:23.658Z,0.50
2022-09-20T18:26:12.927Z,0.40
2022-09-20T18:28:52.971Z,0.20
2022-09-20T18:31:39.558Z,0.57
2022-09-20T18:34:20.685Z,0.10
2022-09-20T18:36:55.243Z,0.17
2022-09-20T18:39:32.853Z,0.63
2022-09-20T18:42:05.088Z,0.67
2022-09-20T18:44:36.774Z,0.20
2022-09-20T18:47:06.458Z,0.33
2022-09-20T18:49:38.563Z,0.50
2022-09-20T18:52:12.825Z,1.47
2022-09-20T18:54:59.551Z,1.30
2022-09-20T18:57:31.607Z,0.50
2022-09-20T19:00:04.545Z,0.40
2022-09-20T19:02:37.538Z,0.30
2022-09-20T19:05:15.247Z,0.00
2022-09-20T19:07:51.090Z,0.20
2022-09-20T19:10:29.504Z,0.20
2022-09-20T19:13:09.421Z,0.00
2022-09-20T19:16:20.835Z,0.20
2022-09-20T19:21:52.431Z,0.47
2022-09-20T19:24:22.900Z,0.10
2022-09-20T19:27:06.668Z,0.30
2022-09-20T19:29:40.098Z,0.20
2022-09-20T19:32:17.211Z,0.40
2022-09-20T19:34:54.544Z,0.20
2022-09-20T19:37:37.867Z,0.00
2022-09-20T19:40:26.501Z,0.17
2022-09-20T19:43:32.096Z,0.27
2022-09-20T19:46:14.695Z,0.20
2022-09-20T19:48:57.486Z,0.60
2022-09-20T19:51:32.426Z,0.53
2022-09-20T19:54:06.425Z,0.40
2022-09-20T19:56:47.668Z,0.50
2022-09-20T19:59:31.068Z,0.77
2022-09-20T20:02:05.901Z,0.40
2022-09-20T20:04:36.202Z,0.50
2022-09-20T20:07:22.760Z,0.40
2022-09-20T20:10:11.091Z,0.30
2022-09-20T20:13:30.760Z,0.40
2022-09-20T20:16:14.420Z,0.27
2022-09-20T20:19:09.138Z,0.30
2022-09-20T20:21:38.296Z,0.40
2022-09-20T20:24:18.609Z,0.70
2022-09-20T20:26:47.480Z,0.30
2022-09-20T20:32:20.066Z,0.10
2022-09-20T20:34:57.542Z,0.40
2022-09-20T20:37:34.738Z,0.37
2022-09-20T20:40:09.300Z,0.47
2022-09-20T20:42:42.323Z,0.40
2022-09-20T20:45:33.572Z,0.20
2022-09-20T20:48:12.120Z,0.32
2022-09-20T20:50:45.162Z,0.40
2022-09-20T20:53:19.580Z,0.30
2022-09-20T20:55:57.835Z,0.60
2022-09-20T20:58:32.473Z,0.60
2022-09-20T21:01:19.928Z,0.50
2022-09-20T21:03:50.775Z,0.67
2022-09-20T21:06:22.521Z,0.30
2022-09-20T21:08:57.014Z,0.10
2022-09-20T21:11:28.459Z,0.60
2022-09-20T21:14:01.074Z,0.75
2022-09-20T21:16:35.891Z,0.33
2022-09-20T21:19:05.236Z,0.63
2022-09-20T21:21:38.065Z,0.63
2022-09-20T21:24:08.686Z,0.10
2022-09-20T21:26:42.130Z,0.20
2022-09-20T21:29:19.958Z,0.10
2022-09-20T21:31:54.058Z,0.10
2022-09-20T21:37:22.666Z,0.20
2022-09-20T21:39:58.832Z,0.10
2022-09-20T21:42:31.208Z,0.17
2022-09-20T21:45:12.552Z,0.23
2022-09-20T21:47:45.878Z,0.10
2022-09-20T21:50:16.042Z,0.30
2022-09-20T21:52:57.990Z,0.30
2022-09-20T21:55:35.504Z,0.20
2022-09-20T21:58:08.142Z,0.23
2022-09-20T22:00:47.529Z,0.13
2022-09-20T22:03:21.376Z,0.20
2022-09-20T22:06:00.190Z,0.20
2022-09-20T22:08:31.541Z,0.10
2022-09-20T22:11:04.309Z,0.10
2022-09-20T22:13:32.391Z,0.10
2022-09-20T22:16:14.696Z,0.17
2022-09-20T22:18:44.483Z,0.30
2022-09-20T22:21:25.376Z,0.10
2022-09-20T22:24:01.170Z,0.33
2022-09-20T22:26:39.631Z,0.30
2022-09-20T22:29:10.902Z,0.10
2022-09-20T22:31:46.419Z,0.20
2022-09-20T22:34:23.889Z,0.00
2022-09-20T22:37:01.173Z,0.27
2022-09-20T22:39:33.523Z,0.10
2022-09-20T22:42:10.391Z,0.00
2022-09-20T22:44:41.795Z,0.13
2022-09-20T22:47:18.321Z,0.30
2022-09-20T22:49:46.397Z,0.47
2022-09-20T22:52:20.397Z,0.40
2022-09-20T22:54:58.445Z,0.30
2022-09-20T22:57:32.603Z,0.10
2022-09-20T23:00:07.743Z,0.17
2022-09-20T23:02:39.578Z,0.37
2022-09-20T23:05:19.793Z,0.30
2022-09-20T23:07:58.887Z,0.10
2022-09-20T23:10:33.996Z,0.43
2022-09-20T23:13:04.956Z,0.10
2022-09-20T23:15:38.079Z,0.30
2022-09-20T23:18:13.203Z,0.27
2022-09-20T23:20:44.026Z,0.30
2022-09-20T23:23:26.872Z,0.57
2022-09-20T23:26:00.718Z,0.13
2022-09-20T23:28:32.028Z,0.60
2022-09-20T23:31:10.384Z,0.20
2022-09-20T23:33:46.007Z,0.27
2022-09-20T23:36:18.982Z,0.30
2022-09-20T23:38:55.049Z,0.30
2022-09-20T23:41:26.291Z,0.20
2022-09-20T23:43:58.666Z,0.00
2022-09-20T23:46:43.671Z,0.30
2022-09-20T23:49:18.470Z,0.27
2022-09-20T23:51:49.353Z,0.10
2022-09-20T23:54:23.497Z,0.20
2022-09-20T23:56:54.990Z,0.20
2022-09-20T23:59:24.697Z,0.15
